createdAt,value
2018-04-17T00:00:55.499Z,78.40
2018-04-17T00:04:58.016Z,78.60
2018-04-17T00:09:00.567Z,78.80
2018-04-17T00:13:03.110Z,78.80
2018-04-17T00:17:05.653Z,78.60
2018-04-17T00:21:08.215Z,78.30
2018-04-17T00:25:10.801Z,78.80
2018-04-17T00:29:13.332Z,78.60
2018-04-17T00:33:15.868Z,79.00
2018-04-17T00:37:18.407Z,79.00
2018-04-17T00:41:20.960Z,78.80
2018-04-17T00:45:23.503Z,79.00
2018-04-17T00:49:26.787Z,79.60
2018-04-17T00:53:40.995Z,78.80
2018-04-17T00:57:43.523Z,79.10
2018-04-17T01:01:46.052Z,78.80
2018-04-17T01:05:48.584Z,78.80
2018-04-17T01:09:51.101Z,78.80
2018-04-17T01:13:54.395Z,78.60
2018-04-17T01:17:56.927Z,78.60
2018-04-17T01:21:59.458Z,78.20
2018-04-17T01:26:01.987Z,78.30
2018-04-17T01:30:04.509Z,78.80
2018-04-17T01:34:07.491Z,78.90
2018-04-17T01:38:10.027Z,80.40
2018-04-17T01:42:13.319Z,79.60
2018-04-17T01:46:16.687Z,79.60
2018-04-17T01:50:19.199Z,79.10
2018-04-17T01:54:21.769Z,78.90
2018-04-17T01:58:24.300Z,80.10
2018-04-17T02:02:26.839Z,79.00
2018-04-17T02:06:29.371Z,78.30
2018-04-17T02:10:31.899Z,78.80
2018-04-17T02:14:34.440Z,79.00
2018-04-17T02:18:36.974Z,78.60
2018-04-17T02:22:39.504Z,79.10
2018-04-17T02:26:42.068Z,78.70
2018-04-17T02:30:44.601Z,78.90
2018-04-17T02:34:47.145Z,78.80
2018-04-17T02:38:50.444Z,79.70
2018-04-17T02:42:52.981Z,79.60
2018-04-17T02:46:55.512Z,79.40
2018-04-17T02:50:58.046Z,79.20
2018-04-17T02:55:00.560Z,79.30
2018-04-17T02:59:03.101Z,78.60
2018-04-17T03:03:05.639Z,79.30
2018-04-17T03:07:08.175Z,79.50
2018-04-17T03:11:10.712Z,79.50
2018-04-17T03:15:13.232Z,79.90
2018-04-17T03:19:15.780Z,79.90
2018-04-17T03:23:18.315Z,79.50
2018-04-17T03:27:20.856Z,78.80
2018-04-17T03:31:23.392Z,78.80
2018-04-17T03:35:25.921Z,79.40
2018-04-17T03:39:28.461Z,80.10
2018-04-17T03:43:30.997Z,79.60
2018-04-17T03:47:34.328Z,80.10
2018-04-17T03:51:36.859Z,80.00
2018-04-17T03:55:39.392Z,80.20
2018-04-17T03:59:41.936Z,79.80
2018-04-17T04:03:44.468Z,79.00
2018-04-17T04:07:47.244Z,79.20
2018-04-17T04:11:50.564Z,79.30
2018-04-17T04:15:53.104Z,79.30
2018-04-17T04:20:07.357Z,79.30
2018-04-17T04:24:21.773Z,79.30
2018-04-17T04:28:24.328Z,79.30
2018-04-17T04:32:27.706Z,80.70
2018-04-17T04:36:30.228Z,80.60
2018-04-17T04:40:33.528Z,83.60
2018-04-17T04:44:36.828Z,81.20
2018-04-17T04:48:40.123Z,80.80
2018-04-17T04:52:43.444Z,80.10
2018-04-17T04:56:45.964Z,80.00
2018-04-17T05:00:48.507Z,79.30
2018-04-17T05:04:51.841Z,81.40
2018-04-17T05:08:54.365Z,81.30
2018-04-17T05:16:50.778Z,80.90
2018-04-17T05:20:53.318Z,82.30
2018-04-17T05:24:55.855Z,79.60
2018-04-17T05:28:58.381Z,80.70
2018-04-17T05:33:00.912Z,81.30
2018-04-17T05:37:03.436Z,79.90
2018-04-17T05:41:05.963Z,80.00
2018-04-17T05:45:09.268Z,79.60
2018-04-17T05:49:12.563Z,81.00
2018-04-17T05:53:15.101Z,81.10
2018-04-17T05:57:17.619Z,80.90
2018-04-17T06:01:20.151Z,79.80
2018-04-17T06:05:22.690Z,79.30
2018-04-17T06:09:25.220Z,79.50
2018-04-17T06:13:27.758Z,79.50
2018-04-17T06:17:30.304Z,78.60
2018-04-17T06:21:32.866Z,80.80
2018-04-17T06:25:35.396Z,78.90
2018-04-17T06:29:37.948Z,79.70
2018-04-17T06:33:40.489Z,79.00
2018-04-17T06:37:43.028Z,79.90
2018-04-17T06:41:45.556Z,83.80
2018-04-17T06:45:48.096Z,79.70
2018-04-17T06:49:50.644Z,79.00
2018-04-17T06:53:53.958Z,80.00
2018-04-17T06:57:56.511Z,80.00
2018-04-17T07:06:07.988Z,81.30
2018-04-17T07:10:11.411Z,84.40
2018-04-17T07:14:14.107Z,79.20
2018-04-17T07:18:16.645Z,80.90
2018-04-17T07:22:19.167Z,79.40
2018-04-17T07:26:21.707Z,79.30
2018-04-17T07:30:25.012Z,91.00
2018-04-17T07:34:27.547Z,90.90
2018-04-17T07:38:30.100Z,79.20
2018-04-17T07:42:32.619Z,79.20
2018-04-17T07:46:35.162Z,89.20
2018-04-17T07:50:37.705Z,79.20
2018-04-17T07:54:40.244Z,80.70
2018-04-17T07:58:42.784Z,81.60
2018-04-17T08:02:45.311Z,84.80
2018-04-17T08:06:48.615Z,80.00
2018-04-17T08:10:51.160Z,79.90
2018-04-17T08:14:54.459Z,80.40
2018-04-17T08:18:57.763Z,79.80
2018-04-17T08:23:01.063Z,79.70
2018-04-17T08:27:03.599Z,79.90
2018-04-17T08:31:06.157Z,82.70
2018-04-17T08:35:08.700Z,83.10
2018-04-17T08:39:11.236Z,79.70
2018-04-17T08:43:13.755Z,81.80
2018-04-17T08:47:16.336Z,80.20
2018-04-17T08:51:18.843Z,80.30
2018-04-17T08:55:21.380Z,79.90
2018-04-17T08:59:23.926Z,79.60
2018-04-17T09:03:27.231Z,80.10
2018-04-17T09:07:30.543Z,79.80
2018-04-17T09:11:33.084Z,79.80
2018-04-17T09:15:35.638Z,79.70
2018-04-17T09:19:38.180Z,79.40
2018-04-17T09:23:40.701Z,79.50
2018-04-17T09:27:43.239Z,77.90
2018-04-17T09:31:45.775Z,79.30
2018-04-17T09:35:48.311Z,78.80
2018-04-17T09:39:50.858Z,77.80
2018-04-17T09:43:53.376Z,77.10
2018-04-17T09:47:55.908Z,75.20
2018-04-17T09:51:58.443Z,75.90
2018-04-17T09:56:00.976Z,77.10
2018-04-17T10:00:03.508Z,65.90
2018-04-17T10:04:06.066Z,75.40
2018-04-17T10:08:08.595Z,76.20
2018-04-17T10:12:11.128Z,66.90
2018-04-17T10:16:13.663Z,70.60
2018-04-17T10:20:16.203Z,71.80
2018-04-17T10:24:19.507Z,73.90
2018-04-17T10:28:22.025Z,74.00
2018-04-17T10:32:24.567Z,67.00
2018-04-17T10:36:27.105Z,75.00
2018-04-17T10:40:29.647Z,71.90
2018-04-17T10:44:32.184Z,74.40
2018-04-17T10:48:34.712Z,68.60
2018-04-17T10:52:37.256Z,72.70
2018-04-17T10:56:40.559Z,68.70
2018-04-17T11:00:43.095Z,67.30
2018-04-17T11:04:45.637Z,69.20
2018-04-17T11:08:48.923Z,73.30
2018-04-17T11:12:51.463Z,73.40
2018-04-17T11:16:53.999Z,70.80
2018-04-17T11:20:56.540Z,71.10
2018-04-17T11:24:59.079Z,74.40
2018-04-17T11:29:02.392Z,73.40
2018-04-17T11:33:04.932Z,73.50
2018-04-17T11:37:07.488Z,66.50
2018-04-17T11:41:10.033Z,67.10
2018-04-17T11:45:13.335Z,72.70
2018-04-17T11:49:16.620Z,71.70
2018-04-17T11:53:19.160Z,71.60
2018-04-17T11:57:21.696Z,74.00
2018-04-17T12:01:24.820Z,69.90
2018-04-17T12:05:28.124Z,70.10
2018-04-17T12:09:30.650Z,70.40
2018-04-17T12:13:33.186Z,63.00
2018-04-17T12:17:36.491Z,70.50
2018-04-17T12:21:39.797Z,61.30
2018-04-17T12:25:43.096Z,73.20
2018-04-17T12:29:46.404Z,65.00
2018-04-17T12:33:49.685Z,67.20
2018-04-17T12:37:52.229Z,65.40
2018-04-17T12:41:55.536Z,72.40
2018-04-17T12:45:58.095Z,72.40
2018-04-17T12:50:00.631Z,70.50
2018-04-17T12:54:03.144Z,70.60
2018-04-17T12:58:05.680Z,69.60
2018-04-17T13:02:08.216Z,65.40
2018-04-17T13:06:11.513Z,69.00
2018-04-17T13:10:14.817Z,66.90
2018-04-17T13:14:19.919Z,72.00
2018-04-17T13:18:22.457Z,72.00
2018-04-17T13:22:25.009Z,71.10
2018-04-17T13:26:27.591Z,73.20
2018-04-17T13:30:30.104Z,72.60
2018-04-17T13:34:32.630Z,68.70
2018-04-17T13:38:35.171Z,67.80
2018-04-17T13:42:38.469Z,68.30
2018-04-17T13:46:41.772Z,73.10
2018-04-17T13:50:45.067Z,73.30
2018-04-17T13:54:47.583Z,73.20
2018-04-17T13:58:50.119Z,70.70
2018-04-17T14:02:52.655Z,73.40
2018-04-17T14:06:55.191Z,69.20
2018-04-17T14:10:57.733Z,73.70
2018-04-17T14:15:00.263Z,72.80
2018-04-17T14:19:02.801Z,73.40
2018-04-17T14:23:05.337Z,70.60
2018-04-17T14:27:07.877Z,72.50
2018-04-17T14:31:10.411Z,73.00
2018-04-17T14:35:12.937Z,71.90
2018-04-17T14:39:15.472Z,72.70
2018-04-17T14:43:18.013Z,70.00
2018-04-17T14:47:20.555Z,71.00
2018-04-17T14:51:23.112Z,70.30
2018-04-17T14:55:25.627Z,69.60
2018-04-17T14:59:28.944Z,65.70
2018-04-17T15:03:32.284Z,73.00
2018-04-17T15:07:34.790Z,73.00
2018-04-17T15:11:37.361Z,72.80
2018-04-17T15:15:39.904Z,72.80
2018-04-17T15:19:42.433Z,71.00
2018-04-17T15:23:44.987Z,71.30
2018-04-17T15:27:47.540Z,73.00
2018-04-17T15:31:50.843Z,70.70
2018-04-17T15:35:54.147Z,59.70
2018-04-17T15:39:57.439Z,71.00
2018-04-17T15:43:59.976Z,70.70
2018-04-17T15:48:02.520Z,71.20
2018-04-17T15:52:05.837Z,70.40
2018-04-17T15:56:09.135Z,64.30
2018-04-17T16:00:12.450Z,67.60
2018-04-17T16:04:15.748Z,67.90
2018-04-17T16:08:19.047Z,68.50
2018-04-17T16:12:22.352Z,68.30
2018-04-17T16:16:24.896Z,68.60
2018-04-17T16:20:27.413Z,64.00
2018-04-17T16:24:30.727Z,68.50
2018-04-17T16:28:33.267Z,68.60
2018-04-17T16:32:35.811Z,70.00
2018-04-17T16:36:38.347Z,68.30
2018-04-17T16:40:40.868Z,70.40
2018-04-17T16:44:43.421Z,69.20
2018-04-17T16:48:45.956Z,67.10
2018-04-17T16:52:48.508Z,66.50
2018-04-17T16:56:51.804Z,66.30
2018-04-17T17:00:55.092Z,69.80
2018-04-17T17:04:57.632Z,69.50
2018-04-17T17:09:00.172Z,65.90
2018-04-17T17:13:02.731Z,65.50
2018-04-17T17:17:05.263Z,63.90
2018-04-17T17:21:07.792Z,65.50
2018-04-17T17:25:10.328Z,67.70
2018-04-17T17:29:13.627Z,69.00
2018-04-17T17:33:16.933Z,68.30
2018-04-17T17:37:20.236Z,67.40
2018-04-17T17:41:22.770Z,67.10
2018-04-17T17:45:25.315Z,67.50
2018-04-17T17:49:27.867Z,69.10
2018-04-17T17:53:30.403Z,69.30
2018-04-17T17:57:32.938Z,68.10
2018-04-17T18:01:35.456Z,68.50
2018-04-17T18:05:38.001Z,69.00
2018-04-17T18:09:40.531Z,68.50
2018-04-17T18:13:43.068Z,69.20
2018-04-17T18:17:45.608Z,69.80
2018-04-17T18:21:48.124Z,69.30
2018-04-17T18:25:50.665Z,68.60
2018-04-17T18:29:53.195Z,69.00
2018-04-17T18:33:55.741Z,68.90
2018-04-17T18:37:58.284Z,68.20
2018-04-17T18:42:00.799Z,69.50
2018-04-17T18:46:03.335Z,70.30
2018-04-17T18:50:05.867Z,69.70
2018-04-17T18:54:09.165Z,70.40
2018-04-17T18:58:12.523Z,69.70
2018-04-17T19:02:15.036Z,69.60
2018-04-17T19:06:17.571Z,69.50
2018-04-17T19:10:20.126Z,69.40
2018-04-17T19:14:22.692Z,70.00
2018-04-17T19:18:25.226Z,70.20
2018-04-17T19:22:27.762Z,68.40
2018-04-17T19:26:31.157Z,70.50
2018-04-17T19:30:33.688Z,70.40
2018-04-17T19:34:36.233Z,71.70
2018-04-17T19:38:38.795Z,69.20
2018-04-17T19:42:41.323Z,70.40
2018-04-17T19:46:44.628Z,69.90
2018-04-17T19:50:47.930Z,70.30
2018-04-17T19:54:50.497Z,70.20
2018-04-17T19:58:53.018Z,69.90
2018-04-17T20:02:55.765Z,69.50
2018-04-17T20:06:59.430Z,70.90
2018-04-17T20:11:02.974Z,70.00
2018-04-17T20:15:05.683Z,69.80
2018-04-17T20:19:08.409Z,70.10
2018-04-17T20:23:10.949Z,70.20
2018-04-17T20:27:13.563Z,69.70
2018-04-17T20:31:16.131Z,70.90
2018-04-17T20:35:18.680Z,70.30
2018-04-17T20:39:21.281Z,70.50
2018-04-17T20:43:24.693Z,70.60
2018-04-17T20:47:27.332Z,70.50
2018-04-17T20:51:29.903Z,70.70
2018-04-17T20:55:32.525Z,70.70
2018-04-17T20:59:35.185Z,70.60
2018-04-17T21:03:37.753Z,70.90
2018-04-17T21:07:41.053Z,71.60
2018-04-17T21:11:44.355Z,71.30
2018-04-17T21:15:46.899Z,71.20
2018-04-17T21:19:49.417Z,71.40
2018-04-17T21:23:51.956Z,71.30
2018-04-17T21:27:54.494Z,71.30
2018-04-17T21:31:57.036Z,71.60
2018-04-17T21:35:59.616Z,71.40
2018-04-17T21:40:02.540Z,71.60
2018-04-17T21:44:05.076Z,72.10
2018-04-17T21:48:07.604Z,72.00
2018-04-17T21:52:10.146Z,72.00
2018-04-17T21:56:12.675Z,72.20
2018-04-17T22:00:15.974Z,72.40
2018-04-17T22:04:18.521Z,72.30
2018-04-17T22:08:21.071Z,72.30
2018-04-17T22:12:23.626Z,72.30
2018-04-17T22:16:26.164Z,72.30
2018-04-17T22:20:28.682Z,72.70
2018-04-17T22:24:31.225Z,72.60
2018-04-17T22:28:33.759Z,72.50
2018-04-17T22:32:36.291Z,73.30
2018-04-17T22:36:38.808Z,72.60
2018-04-17T22:40:41.343Z,73.40
2018-04-17T22:44:43.898Z,72.80
2018-04-17T22:48:46.438Z,73.20
2018-04-17T22:52:48.968Z,73.00
2018-04-17T22:56:51.480Z,73.30
2018-04-17T23:00:54.780Z,73.20
2018-04-17T23:04:58.081Z,73.60
2018-04-17T23:09:01.390Z,73.60
2018-04-17T23:13:04.688Z,73.50
2018-04-17T23:17:07.991Z,73.50
2018-04-17T23:21:11.267Z,73.50
2018-04-17T23:25:13.800Z,73.50
2018-04-17T23:29:16.336Z,73.20
2018-04-17T23:33:18.879Z,73.30
2018-04-17T23:37:21.420Z,73.30
2018-04-17T23:41:23.931Z,73.30
2018-04-17T23:45:27.244Z,73.10
2018-04-17T23:49:29.780Z,73.10
2018-04-17T23:53:32.324Z,73.30
2018-04-17T23:57:34.860Z,73.30
